Latest Weather Observations for Moss Vale

IDN60801

Issued at 7:03 pm EDT Monday 23 October 2017 (issued every 30 minutes, with the page automatically refreshed every 10 minutes)

About weather observations | Map of weather stations | Latest weather observations for NSW | Other Formats
Station Details ID: 068239 Name: MOSS VALE AWS Lat: -34.53 Lon: 150.42 Height: 678.4 m
Data from the previous 72 hours. | See also: Recent months at Moss Vale
Date/Time
EDT
Temp
°C
App
Temp
°C
Dew
Point
°C
Rel
Hum
%
Delta-T
°C
Wind Press
QNH
hPa
Press
MSL
hPa
Rain since
9am
mm
Dir  Spd
km/h
Gust
km/h
Spd
kts
Gust
kts
23/07:00pm 14.6 10.7 8.5 67 3.2 NE 19 24 10 13 1017.7 1016.6 0.0
23/06:30pm 15.7 11.5 8.4 62 3.8 NE 20 24 11 13 1017.4 1016.2 0.0
23/06:00pm 16.8 11.8 8.2 57 4.5 NNE 24 32 13 17 1017.1 1015.9 0.0
23/05:30pm 17.4 12.8 8.0 54 4.9 NNE 22 28 12 15 1016.8 1015.6 0.0
23/05:00pm 18.4 14.0 6.6 46 6.1 NNE 19 24 10 13 1016.8 1015.6 0.0
23/04:30pm 18.0 14.8 6.8 48 5.8 ENE 13 19 7 10 1016.9 1015.7 0.0
23/04:00pm 17.6 13.7 5.2 44 6.2 NE 15 24 8 13 1017.0 1015.8 0.0
23/03:30pm 17.6 15.3 4.9 43 6.3 NE 6 11 3 6 1017.3 1016.1 0.0
23/03:00pm 18.6 15.2 6.1 44 6.4 NE 13 19 7 10 1017.4 1016.2 0.0
23/02:30pm 18.3 16.2 5.8 44 6.3 W 6 13 3 7 1017.7 1016.6 0.0
23/02:00pm 17.5 15.1 4.5 42 6.4 N 6 9 3 5 1018.0 1016.8 0.0
23/01:30pm 16.4 13.5 4.8 46 5.7 NNE 9 13 5 7 1018.2 1017.0 0.0
23/01:00pm 16.9 13.9 6.1 49 5.5 NE 11 19 6 10 1018.4 1017.2 0.0
23/12:30pm 15.9 12.2 4.6 47 5.5 NW 13 17 7 9 1018.6 1017.4 0.0
23/12:00pm 16.5 14.1 7.2 54 4.8 NNW 9 13 5 7 1018.8 1017.6 0.0
23/11:30am 14.9 12.5 7.0 59 4.0 NNW 9 13 5 7 1019.1 1018.0 0.0
23/11:00am 13.8 11.5 5.9 59 3.9 SW 7 13 4 7 1019.2 1018.1 0.0
23/10:30am 13.8 12.2 7.8 67 3.1 ESE 6 9 3 5 1019.2 1018.1 0.0
23/10:00am 11.7 9.4 7.4 75 2.2 WSW 9 11 5 6 1019.2 1018.1 0.0
23/09:40am 10.4 7.9 8.0 85 1.2 SSW 11 15 6 8 1019.0 1017.9 0.0
23/09:30am 10.5 8.1 8.6 88 1.0 SW 11 19 6 10 1018.9 1017.7 0.0
23/09:25am 10.7 8.2 9.8 94 0.5 SW 13 19 7 10 1018.9 1017.7 0.0
23/09:00am 10.0 - - - - SSW 6 11 3 6 1018.8 1017.6 1.2
23/08:57am 9.4 - - - - SSW 6 11 3 6 1018.8 1017.6 1.2
23/08:55am 9.5 - - - - SW 6 9 3 5 1018.7 1017.5 1.2
23/08:30am 8.6 - - - - WSW 6 9 3 5 1018.6 1017.4 1.2
23/08:00am 7.2 - - - - SW 7 9 4 5 1018.3 1017.1 1.2
23/07:30am 5.9 - - - - SW 7 9 4 5 1018.0 1016.8 1.2
23/07:00am 5.6 - - - - WSW 7 9 4 5 1017.7 1016.6 1.2
23/06:30am 5.3 - - - - WSW 6 9 3 5 1017.5 1016.3 1.2
23/06:00am 5.2 - - - - SW 6 7 3 4 1017.3 1016.1 1.2
23/05:30am 5.4 - - - - WSW 7 7 4 4 1017.0 1015.8 1.2
23/05:00am 5.3 - - - - WSW 7 9 4 5 1016.9 1015.7 1.2
23/04:30am 5.7 - - - - CALM 0 0 0 0 1016.7 1015.5 1.2
23/04:00am 5.8 - - - - N 6 7 3 4 1016.7 1015.5 1.2
23/03:30am 5.4 - - - - NNE 7 9 4 5 1016.7 1015.5 1.2
23/03:00am 5.1 - - - - SSW 9 11 5 6 1016.8 1015.6 1.0
23/02:38am 5.4 - - - - SW 9 9 5 5 1016.9 1015.7 1.0
23/02:30am 5.7 - - - - WSW 7 7 4 4 1016.9 1015.7 1.0
23/02:00am 6.4 - - - - WSW 4 6 2 3 1017.1 1015.9 1.0
23/01:36am 7.5 - - - - SW 7 9 4 5 1017.0 1015.8 1.0
23/01:30am 7.4 - - - - SW 7 9 4 5 1017.1 1015.9 1.0
23/01:20am 7.2 - - - - WSW 7 9 4 5 1017.2 1016.0 1.0
23/01:00am 6.8 4.4 6.8 100 0.0 WSW 9 11 5 6 1017.3 1016.1 1.0
23/12:30am 7.8 7.3 7.8 100 0.0 CALM 0 0 0 0 1017.4 1016.2 1.0
23/12:00am 8.3 6.8 8.3 100 0.0 SSE 6 7 3 4 1017.3 1016.1 1.0
 
Date/Time
EDT
Temp
°C
App
Temp
°C
Dew
Point
°C
Rel
Hum
%
Delta-T
°C
Wind Press
QNH
hPa
Press
MSL
hPa
Rain since
9am
mm
Dir  Spd
km/h
Gust
km/h
Spd
kts
Gust
kts
22/11:30pm 8.8 7.2 8.7 99 0.1 SSE 7 9 4 5 1017.3 1016.1 1.0
22/11:00pm 9.2 9.0 8.9 98 0.2 CALM 0 0 0 0 1017.3 1016.1 1.0
22/10:30pm 9.2 8.2 8.7 97 0.3 SSE 4 7 2 4 1017.4 1016.2 1.0
22/10:00pm 9.3 7.4 7.6 89 0.8 SE 7 9 4 5 1017.2 1016.0 1.0
22/09:30pm 9.4 7.6 7.0 85 1.2 ESE 6 9 3 5 1017.0 1015.8 1.0
22/09:00pm 9.4 6.8 7.7 89 0.8 SE 11 15 6 8 1016.7 1015.5 1.0
22/08:30pm 9.6 6.1 7.2 85 1.2 SE 15 19 8 10 1016.5 1015.3 0.6
22/08:00pm 9.8 5.9 7.1 83 1.3 SE 17 22 9 12 1016.0 1014.8 0.4
22/07:30pm 10.2 6.3 6.9 80 1.6 SE 17 22 9 12 1015.6 1014.4 0.4
22/07:16pm 10.2 6.7 7.1 81 1.5 ESE 15 22 8 12 1015.3 1014.1 0.4
22/07:00pm 10.5 6.7 7.4 81 1.5 ESE 17 22 9 12 1015.1 1013.8 0.4
22/06:30pm 11.0 7.8 8.4 84 1.3 E 15 20 8 11 1014.3 1013.1 0.4
22/06:00pm 11.3 7.8 8.7 84 1.3 ENE 17 24 9 13 1014.0 1012.8 0.4
22/05:30pm 11.4 7.4 8.4 82 1.5 ESE 19 26 10 14 1013.9 1012.7 0.4
22/05:04pm 11.7 7.9 8.9 83 1.4 SE 19 26 10 14 1013.7 1012.4 0.4
22/05:00pm 11.7 8.2 8.7 82 1.5 ESE 17 26 9 14 1013.7 1012.4 0.4
22/04:30pm 12.3 9.6 9.1 81 1.7 ENE 13 17 7 9 1013.4 1012.1 0.4
22/04:29pm 12.2 9.4 8.7 79 1.8 ENE 13 17 7 9 1013.4 1012.1 0.2
22/04:16pm 12.2 9.1 9.0 81 1.7 ENE 15 19 8 10 1013.3 1012.0 0.0
22/04:00pm 12.4 8.5 8.7 78 1.9 E 19 24 10 13 1013.3 1012.0 0.0
22/03:30pm 13.3 8.4 8.4 72 2.5 E 24 32 13 17 1012.9 1011.7 0.0
22/03:00pm 13.5 9.9 8.4 71 2.6 NE 17 20 9 11 1013.2 1011.9 0.0
22/02:30pm 13.5 9.5 8.1 70 2.8 NE 19 22 10 12 1013.4 1012.1 0.0
22/02:00pm 14.3 10.8 7.4 63 3.5 ESE 15 22 8 12 1013.6 1012.3 0.0
22/01:30pm 15.1 10.5 5.6 53 4.7 ESE 19 28 10 15 1013.6 1012.3 0.0
22/01:00pm 16.1 13.5 4.2 45 5.8 NE 7 13 4 7 1013.8 1012.5 0.0
22/12:30pm 15.3 12.5 5.0 50 5.0 WSW 9 15 5 8 1013.9 1012.7 0.0
22/12:00pm 16.3 14.0 7.3 55 4.6 ESE 9 15 5 8 1014.0 1012.8 0.0
22/11:30am 14.3 12.1 5.4 55 4.4 WSW 6 11 3 6 1014.3 1013.1 0.0
22/11:00am 14.4 11.9 5.0 53 4.6 N 7 13 4 7 1014.8 1013.5 0.0
22/10:30am 15.1 12.9 6.4 56 4.4 NNE 7 15 4 8 1015.1 1013.8 0.0
22/10:00am 12.7 9.8 6.5 66 3.1 NE 11 17 6 9 1015.3 1014.1 0.0
22/09:30am 12.0 9.0 6.1 67 2.9 W 11 19 6 10 1015.6 1014.4 0.0
22/09:00am 12.4 11.0 7.3 71 2.6 NNW 4 7 2 4 1015.5 1014.3 0.0
22/08:43am 11.4 9.0 7.1 75 2.1 NNW 9 13 5 7 1015.6 1014.4 0.0
22/08:30am 10.9 7.6 6.6 75 2.1 NW 13 19 7 10 1015.6 1014.4 0.0
22/08:00am 10.7 8.3 8.8 88 1.0 NNE 11 15 6 8 1015.3 1014.1 0.0
22/07:30am 9.4 6.7 8.8 96 0.3 N 13 17 7 9 1015.2 1014.0 0.0
22/07:00am 9.2 7.3 9.2 100 0.0 NNW 9 11 5 6 1015.1 1013.8 0.0
22/06:39am 8.7 8.0 8.7 100 0.0 NE 2 6 1 3 1015.1 1013.8 0.0
22/06:30am 8.6 7.1 8.6 100 0.0 NE 6 9 3 5 1015.1 1013.8 0.0
22/06:00am 8.8 5.3 8.7 99 0.1 NNE 17 19 9 10 1014.6 1013.4 0.0
22/05:30am 9.5 7.6 9.2 98 0.2 N 9 13 5 7 1015.0 1013.7 0.0
22/05:00am 9.5 8.1 9.0 97 0.3 NE 6 9 3 5 1015.0 1013.7 0.0
22/04:30am 9.5 8.1 8.9 96 0.3 NE 6 11 3 6 1015.2 1014.0 0.0
22/04:00am 9.5 8.0 9.0 97 0.3 NE 7 9 4 5 1015.3 1014.1 0.0
22/03:30am 9.5 7.7 9.4 99 0.1 ENE 9 11 5 6 1015.5 1014.3 0.0
22/03:00am 9.4 7.6 9.3 99 0.1 NE 9 11 5 6 1015.8 1014.6 0.0
22/02:30am 9.4 7.5 9.1 98 0.2 ENE 9 11 5 6 1016.3 1015.0 0.0
22/02:00am 9.5 7.6 9.0 97 0.3 NE 9 11 5 6 1016.6 1015.4 0.0
22/01:30am 9.5 8.1 8.9 96 0.3 NE 6 7 3 4 1016.9 1015.7 0.0
22/01:04am 9.5 7.6 9.2 98 0.2 ENE 9 11 5 6 1017.3 1016.1 0.0
22/01:00am 9.4 7.5 8.9 97 0.3 ENE 9 11 5 6 1017.3 1016.1 0.0
22/12:43am 9.4 7.1 9.1 98 0.2 NE 11 13 6 7 1017.5 1016.3 0.0
22/12:30am 9.3 7.4 9.0 98 0.2 NE 9 13 5 7 1017.7 1016.6 0.0
22/12:00am 9.2 7.6 8.7 97 0.3 E 7 9 4 5 1018.0 1016.8 0.0
 
Date/Time
EDT
Temp
°C
App
Temp
°C
Dew
Point
°C
Rel
Hum
%
Delta-T
°C
Wind Press
QNH
hPa
Press
MSL
hPa
Rain since
9am
mm
Dir  Spd
km/h
Gust
km/h
Spd
kts
Gust
kts
21/11:52pm 9.2 7.2 8.7 97 0.3 E 9 11 5 6 1018.1 1016.9 0.0
21/11:30pm 9.2 7.8 8.7 97 0.3 NE 6 9 3 5 1018.4 1017.2 0.0
21/11:29pm 9.2 7.6 8.9 98 0.2 NE 7 9 4 5 1018.4 1017.2 0.0
21/11:00pm 9.1 7.5 8.8 98 0.2 ENE 7 11 4 6 1018.3 1017.1 0.0
21/10:53pm 9.0 7.0 8.7 98 0.2 E 9 11 5 6 1018.4 1017.2 0.0
21/10:30pm 9.1 6.7 8.6 97 0.3 E 11 15 6 8 1018.6 1017.4 0.0
21/10:00pm 8.8 6.4 8.5 98 0.2 ENE 11 13 6 7 1018.6 1017.4 0.0
21/09:30pm 8.4 6.3 8.3 99 0.0 ENE 9 11 5 6 1018.8 1017.6 0.0
21/09:17pm 8.0 5.7 7.6 97 0.2 ENE 9 11 5 6 1018.8 1017.6 0.0
21/09:00pm 8.1 5.4 7.3 95 0.4 ENE 11 15 6 8 1018.6 1017.4 0.0
21/08:30pm 8.4 4.7 6.2 86 1.0 ENE 15 20 8 11 1018.4 1017.2 0.0
21/08:00pm 9.0 4.9 6.3 83 1.3 ENE 17 22 9 12 1018.2 1017.0 0.0
21/07:30pm 9.5 5.7 6.0 79 1.7 ENE 15 19 8 10 1018.0 1016.8 0.0
21/07:00pm 10.9 6.3 6.3 73 2.2 ENE 20 26 11 14 1017.7 1016.6 0.0
21/06:30pm 12.1 7.6 6.8 70 2.6 ENE 20 26 11 14 1017.6 1016.4 0.0
21/06:00pm 13.6 9.7 7.2 65 3.2 ENE 17 22 9 12 1017.7 1016.6 0.0
21/05:30pm 14.3 11.0 6.2 58 4.0 ENE 13 15 7 8 1017.7 1016.6 0.0
21/05:00pm 13.9 8.9 6.5 61 3.7 ENE 22 30 12 16 1017.9 1016.7 0.0
21/04:30pm 15.0 11.1 3.2 45 5.5 NNE 13 19 7 10 1018.0 1016.8 0.0
21/04:00pm 15.7 12.5 3.2 43 5.9 S 9 17 5 9 1018.4 1017.2 0.0
21/03:30pm 15.6 12.9 3.7 45 5.7 NE 7 15 4 8 1018.7 1017.5 0.0
21/03:00pm 14.9 11.7 4.9 51 4.9 SSE 11 17 6 9 1019.2 1018.1 0.0
21/02:30pm 13.7 10.5 3.2 49 4.9 SSE 9 15 5 8 1019.8 1018.6 0.0
21/02:00pm 13.9 11.0 4.5 53 4.5 NE 9 17 5 9 1020.2 1019.0 0.0
21/01:30pm 14.2 10.5 6.3 59 3.9 ESE 15 20 8 11 1020.5 1019.4 0.0
21/01:00pm 12.5 8.8 4.7 59 3.7 SE 13 19 7 10 1021.1 1019.9 0.0
21/12:30pm 12.3 8.6 4.3 58 3.8 SE 13 17 7 9 1021.5 1020.3 0.0
21/12:00pm 11.7 8.4 4.4 61 3.4 SSE 11 19 6 10 1021.8 1020.7 0.0
21/11:30am 11.5 7.9 4.9 64 3.1 SE 13 24 7 13 1022.2 1021.1 0.0
21/11:00am 10.9 6.8 4.4 64 3.0 S 15 22 8 12 1022.4 1021.3 0.0
21/10:30am 9.6 6.2 4.0 68 2.6 SSE 11 17 6 9 1022.9 1021.8 0.0
21/10:00am 9.3 6.3 4.1 70 2.4 ESE 9 15 5 8 1023.0 1021.9 0.0
21/09:30am 8.8 4.9 3.6 70 2.3 SE 13 19 7 10 1022.9 1021.8 0.0
21/09:00am 8.2 3.5 3.1 70 2.2 SSE 17 22 9 12 1022.9 1021.8 1.8
21/08:30am 8.6 3.4 3.4 70 2.3 SE 20 26 11 14 1022.7 1021.5 1.8
21/08:00am 7.7 3.4 3.0 72 2.1 SSE 15 20 8 11 1022.7 1021.5 1.8
21/07:30am 6.4 3.1 4.7 89 0.8 SSW 11 13 6 7 1022.7 1021.5 1.8
21/07:00am 5.5 3.0 4.8 95 0.3 SSW 7 9 4 5 1022.4 1021.3 1.8
21/06:30am 5.4 2.9 4.8 96 0.3 SSW 7 9 4 5 1022.4 1021.3 1.8
21/06:00am 5.5 1.9 4.8 95 0.3 S 13 17 7 9 1022.4 1021.3 1.8
21/05:30am 5.7 2.0 4.7 93 0.4 SSW 13 15 7 8 1022.4 1021.3 1.8
21/05:00am 6.1 2.0 4.4 89 0.8 SSW 15 19 8 10 1022.4 1021.3 1.8
21/04:30am 6.9 2.3 3.7 80 1.4 S 17 24 9 13 1022.7 1021.5 1.8
21/04:00am 7.0 2.0 3.8 80 1.4 S 19 30 10 16 1022.8 1021.6 1.8
21/03:30am 7.5 2.8 5.3 86 1.0 SSE 19 28 10 15 1023.1 1022.0 1.8
21/03:00am 7.7 2.9 5.7 87 0.9 SSE 20 28 11 15 1023.2 1022.1 1.8
21/02:30am 8.0 3.5 6.0 87 0.9 S 19 30 10 16 1023.5 1022.4 1.8
21/02:20am 8.1 3.5 6.4 89 0.8 SSE 20 32 11 17 1023.5 1022.4 1.8
21/02:00am 8.2 3.3 6.8 91 0.7 SSE 22 35 12 19 1023.6 1022.5 1.8
21/01:30am 8.3 3.5 7.2 93 0.5 SSE 22 28 12 15 1023.8 1022.7 1.8
21/01:00am 8.5 3.7 7.3 92 0.6 SSE 22 32 12 17 1024.2 1023.1 1.8
21/12:30am 8.6 3.4 7.4 92 0.6 SE 24 35 13 19 1024.5 1023.4 1.8
21/12:10am 8.7 3.9 7.5 92 0.6 SSE 22 35 12 19 1024.7 1023.6 1.8
21/12:00am 8.7 3.9 7.5 92 0.6 SSE 22 30 12 16 1024.8 1023.7 1.8
 
Date/Time
EDT
Temp
°C
App
Temp
°C
Dew
Point
°C
Rel
Hum
%
Delta-T
°C
Wind Press
QNH
hPa
Press
MSL
hPa
Rain since
9am
mm
Dir  Spd
km/h
Gust
km/h
Spd
kts
Gust
kts
20/11:30pm 8.5 4.3 7.4 93 0.5 SSE 19 24 10 13 1024.8 1023.7 1.8
20/11:20pm 8.6 4.3 7.7 94 0.4 SSE 20 30 11 16 1025.0 1023.9 1.8
20/11:08pm 8.6 4.3 7.7 94 0.4 SSE 20 28 11 15 1024.9 1023.8 1.8
20/11:00pm 8.6 4.6 8.3 98 0.1 SSE 19 28 10 15 1024.9 1023.8 1.8
20/10:30pm 8.9 5.4 8.9 100 0.0 SE 17 24 9 13 1024.9 1023.8 1.8
20/10:00pm 8.7 4.8 8.7 100 0.0 SSE 19 24 10 13 1024.9 1023.8 1.8
20/09:30pm 9.0 5.0 9.0 100 0.0 SSE 20 28 11 15 1024.8 1023.7 1.8
20/09:00pm 9.0 - - - - SSE 17 30 9 16 1024.8 1023.7 1.8
20/08:30pm 9.0 - - - - SSE 17 24 9 13 1024.6 1023.5 1.2
20/08:00pm 8.9 4.9 8.9 100 0.0 SE 20 32 11 17 1024.3 1023.2 1.2
20/07:30pm 9.2 5.2 9.2 100 0.0 SE 20 32 11 17 1023.6 1022.5 1.2

Other Formats:

Comma delimited format used in spreadsheet applications
http://www.bom.gov.au/fwo/IDN60801/IDN60801.94746.axf

JavaScript Object Notation format (JSON) in row-major order
http://www.bom.gov.au/fwo/IDN60801/IDN60801.94746.json